Time;durP1;ratioP1;P1;durP2;ratioP2;P2;SDS_P1;SDS_P2;PMS_P1;PMS_P2;Temp;Humidity;BMP_temperature;BMP_pressure;BME280_temperature;BME280_humidity;BME280_pressure;Samples;Min_cycle;Max_cycle;Signal;HPM_P1;HPM_P2
2022/11/10 00:00:46;;;;;;;5.17;4.03;;;12.60;99.90;;;;;;4978178;28;20521;-68
2022/11/10 00:03:12;;;;;;;8.30;3.50;;;12.60;99.90;;;;;;4978269;28;20545;-69
2022/11/10 00:05:39;;;;;;;5.13;3.73;;;12.60;99.90;;;;;;4978329;28;20832;-69
2022/11/10 00:08:08;;;;;;;7.17;4.00;;;12.60;99.90;;;;;;4978131;28;20458;-69
2022/11/10 00:10:55;;;;;;;7.83;4.30;;;12.60;99.90;;;;;;4978169;28;20454;-68
2022/11/10 00:13:24;;;;;;;4.37;3.97;;;12.60;99.90;;;;;;4978099;28;20490;-66
2022/11/10 00:18:35;;;;;;;5.33;4.00;;;12.50;99.90;;;;;;4978166;28;20413;-67
2022/11/10 00:21:06;;;;;;;5.03;4.47;;;12.50;99.90;;;;;;4977908;28;20465;-67
2022/11/10 00:23:33;;;;;;;5.73;4.07;;;12.50;99.90;;;;;;4977884;28;20486;-67
2022/11/10 00:26:00;;;;;;;6.10;4.33;;;12.50;99.90;;;;;;4977789;28;20482;-68
2022/11/10 00:28:30;;;;;;;6.67;4.67;;;12.50;99.90;;;;;;4977808;28;20459;-68
2022/11/10 00:30:58;;;;;;;7.70;5.10;;;12.50;99.90;;;;;;4977828;28;20450;-68
2022/11/10 00:33:24;;;;;;;5.30;4.80;;;12.50;99.90;;;;;;4977712;28;20474;-68
2022/11/10 00:35:51;;;;;;;4.63;4.20;;;12.40;99.90;;;;;;4977492;28;21050;-68
2022/11/10 00:38:18;;;;;;;7.60;4.93;;;12.50;99.90;;;;;;4977582;28;20867;-67
2022/11/10 00:40:44;;;;;;;4.77;3.87;;;12.50;99.90;;;;;;4977560;28;20509;-68
2022/11/10 00:43:11;;;;;;;8.50;4.60;;;12.40;99.90;;;;;;4977518;28;20471;-68
2022/11/10 00:45:42;;;;;;;9.80;4.80;;;12.40;99.90;;;;;;4977499;28;20506;-68
2022/11/10 00:48:09;;;;;;;9.10;4.33;;;12.40;99.90;;;;;;4977472;28;20817;-67
2022/11/10 00:50:36;;;;;;;5.40;4.07;;;12.40;99.90;;;;;;4977497;28;20863;-67
2022/11/10 00:53:02;;;;;;;4.63;4.10;;;12.40;99.90;;;;;;4977089;28;20990;-67
2022/11/10 00:55:29;;;;;;;8.20;4.00;;;12.30;99.90;;;;;;4977400;28;20450;-68
2022/11/10 00:57:56;;;;;;;6.10;4.73;;;12.30;99.90;;;;;;4977343;28;20454;-68
2022/11/10 01:00:22;;;;;;;6.33;4.30;;;12.30;99.90;;;;;;4976850;28;20974;-67
2022/11/10 01:02:50;;;;;;;13.40;4.43;;;12.30;99.90;;;;;;4977156;28;20844;-68
2022/11/10 01:05:17;;;;;;;5.80;3.80;;;12.20;99.90;;;;;;4976781;28;20479;-68
2022/11/10 01:07:44;;;;;;;5.60;4.37;;;12.20;99.90;;;;;;4977330;28;20513;-67
2022/11/10 01:10:10;;;;;;;7.63;4.50;;;12.20;99.90;;;;;;4976734;28;20463;-67
2022/11/10 01:12:37;;;;;;;7.50;3.63;;;12.10;99.90;;;;;;4977114;28;20454;-69
2022/11/10 01:15:04;;;;;;;5.50;3.77;;;12.20;99.90;;;;;;4977202;28;20450;-68
2022/11/10 01:17:31;;;;;;;7.17;3.60;;;12.10;99.90;;;;;;4977146;28;20506;-68
2022/11/10 01:19:59;;;;;;;7.03;4.27;;;12.10;99.90;;;;;;4977125;28;20470;-68
2022/11/10 01:22:26;;;;;;;6.33;4.60;;;12.10;99.90;;;;;;4977072;28;20458;-68
2022/11/10 01:24:52;;;;;;;6.83;3.80;;;12.00;99.90;;;;;;4976925;28;20873;-68
2022/11/10 01:27:19;;;;;;;7.20;4.57;;;12.00;99.90;;;;;;4976980;28;20458;-68
2022/11/10 01:29:46;;;;;;;8.40;4.60;;;12.00;99.90;;;;;;4976845;28;20463;-68
2022/11/10 01:32:12;;;;;;;7.20;4.67;;;12.00;99.90;;;;;;4976813;28;20486;-68
2022/11/10 01:34:39;;;;;;;8.00;4.20;;;11.90;99.90;;;;;;4976578;28;20482;-68
2022/11/10 01:37:07;;;;;;;8.33;3.83;;;11.90;99.90;;;;;;4976639;28;20877;-69
2022/11/10 01:39:34;;;;;;;8.77;4.90;;;11.90;99.90;;;;;;4976454;28;20459;-68
2022/11/10 01:42:00;;;;;;;8.10;4.40;;;11.90;99.90;;;;;;4976323;28;20509;-68
2022/11/10 01:44:27;;;;;;;8.73;4.00;;;11.90;99.90;;;;;;4976027;28;20982;-69
2022/11/10 01:46:54;;;;;;;12.13;4.57;;;11.90;99.90;;;;;;4976480;28;20455;-68
2022/11/10 01:49:24;;;;;;;10.30;5.07;;;11.90;99.90;;;;;;4976531;28;20466;-68
2022/11/10 01:51:54;;;;;;;9.87;5.30;;;11.90;99.90;;;;;;4976634;28;20808;-68
2022/11/10 01:54:25;;;;;;;8.67;6.30;;;11.90;99.90;;;;;;4976409;28;20486;-68
2022/11/10 01:56:57;;;;;;;8.83;5.87;;;12.00;99.90;;;;;;4976366;28;20431;-68
2022/11/10 01:59:27;;;;;;;8.43;6.10;;;12.00;99.90;;;;;;4976277;28;20439;-68
2022/11/10 02:01:58;;;;;;;12.80;7.93;;;11.90;99.90;;;;;;4975914;28;20477;-67
2022/11/10 02:04:25;;;;;;;12.77;7.23;;;11.90;99.90;;;;;;4975725;28;20978;-67
2022/11/10 02:06:52;;;;;;;13.73;7.50;;;11.90;99.90;;;;;;4975689;28;21052;-68
2022/11/10 02:09:19;;;;;;;11.83;9.10;;;11.90;99.90;;;;;;4976095;28;20458;-67
2022/11/10 02:11:51;;;;;;;13.90;10.67;;;11.80;99.90;;;;;;4976006;28;20458;-67
2022/11/10 02:14:17;;;;;;;13.50;8.97;;;11.80;99.90;;;;;;4975586;28;21005;-67
2022/11/10 02:16:44;;;;;;;12.00;9.27;;;11.80;99.90;;;;;;4976620;28;20462;-67
2022/11/10 02:19:17;;;;;;;11.50;7.70;;;11.70;99.90;;;;;;4976621;28;20462;-68
2022/11/10 02:21:45;;;;;;;18.33;6.50;;;11.70;99.90;;;;;;4975361;28;20462;-69
2022/11/10 02:24:12;;;;;;;14.20;8.70;;;11.70;99.90;;;;;;4976094;28;20474;-68
2022/11/10 02:26:43;;;;;;;9.67;7.77;;;11.70;99.90;;;;;;4976351;28;20481;-68
2022/11/10 02:29:11;;;;;;;14.07;7.83;;;11.60;99.90;;;;;;4976001;28;20439;-68
2022/11/10 02:31:38;;;;;;;10.97;7.93;;;11.60;99.90;;;;;;4975650;28;20461;-67
2022/11/10 02:34:04;;;;;;;8.63;7.73;;;11.50;99.90;;;;;;4975563;28;20474;-68
2022/11/10 02:36:31;;;;;;;12.50;8.40;;;11.50;99.90;;;;;;4975677;28;20455;-68
2022/11/10 02:38:59;;;;;;;10.20;8.20;;;11.50;99.90;;;;;;4975755;28;20455;-67
2022/11/10 02:41:26;;;;;;;14.47;8.27;;;11.50;99.90;;;;;;4975484;28;20513;-67
2022/11/10 02:43:54;;;;;;;11.13;7.70;;;11.40;99.90;;;;;;4975538;28;20478;-68
2022/11/10 02:46:21;;;;;;;9.57;6.90;;;11.40;99.90;;;;;;4975304;28;20893;-68
2022/11/10 02:48:47;;;;;;;10.07;6.93;;;11.40;99.90;;;;;;4975328;28;20816;-68
2022/11/10 02:51:14;;;;;;;10.93;7.60;;;11.40;99.90;;;;;;4975296;28;20462;-68
2022/11/10 02:53:41;;;;;;;13.07;7.43;;;11.40;99.90;;;;;;4975256;28;20475;-67
2022/11/10 02:56:09;;;;;;;11.00;8.07;;;11.40;99.90;;;;;;4975321;28;20545;-68
2022/11/10 02:58:36;;;;;;;13.10;8.60;;;11.30;99.90;;;;;;4975254;28;20501;-68
2022/11/10 03:01:05;;;;;;;13.97;9.57;;;11.30;99.90;;;;;;4975036;28;20467;-69
2022/11/10 03:03:32;;;;;;;14.77;10.33;;;11.30;99.90;;;;;;4975353;28;20536;-68
2022/11/10 03:05:59;;;;;;;14.83;9.30;;;11.30;99.90;;;;;;4975101;28;20479;-68
2022/11/10 03:08:25;;;;;;;9.80;7.70;;;11.30;99.90;;;;;;4975125;28;20455;-68
2022/11/10 03:10:54;;;;;;;13.63;7.30;;;11.30;99.90;;;;;;4975136;28;20451;-69
2022/11/10 03:13:22;;;;;;;10.53;6.40;;;11.30;99.90;;;;;;4974971;28;20486;-68
2022/11/10 03:15:49;;;;;;;10.90;5.93;;;11.20;99.90;;;;;;4974981;28;20450;-68
2022/11/10 03:18:15;;;;;;;10.80;5.80;;;11.20;99.90;;;;;;4975471;28;20509;-68
2022/11/10 03:20:42;;;;;;;8.77;5.80;;;11.20;99.90;;;;;;4974975;28;20454;-69
2022/11/10 03:23:09;;;;;;;6.70;4.80;;;11.20;99.90;;;;;;4974870;28;20537;-68
2022/11/10 03:25:37;;;;;;;8.70;5.20;;;11.20;99.90;;;;;;4974932;28;20481;-67
2022/11/10 03:28:04;;;;;;;11.73;6.30;;;11.10;99.90;;;;;;4974916;28;20459;-68
2022/11/10 03:30:32;;;;;;;11.83;6.23;;;11.10;99.90;;;;;;4974556;28;20843;-68
2022/11/10 03:32:58;;;;;;;10.97;5.83;;;11.10;99.90;;;;;;4976820;28;20485;-67
2022/11/10 03:35:25;;;;;;;9.83;6.40;;;11.00;99.90;;;;;;4979000;28;20454;-68
2022/11/10 03:37:52;;;;;;;10.23;5.90;;;11.00;99.90;;;;;;4978963;28;20463;-67
2022/11/10 03:40:18;;;;;;;9.43;6.03;;;11.00;99.90;;;;;;4978804;28;20513;-68
2022/11/10 03:42:46;;;;;;;8.27;5.80;;;11.00;99.90;;;;;;4978672;28;20495;-67
2022/11/10 03:45:14;;;;;;;12.57;6.80;;;10.90;99.90;;;;;;4978586;28;20458;-69
2022/11/10 03:47:45;;;;;;;8.73;6.57;;;10.90;99.90;;;;;;4978791;28;20462;-68
2022/11/10 03:50:12;;;;;;;8.80;5.27;;;10.80;99.90;;;;;;4978688;28;20477;-68
2022/11/10 03:52:38;;;;;;;8.10;5.87;;;10.80;99.90;;;;;;4978292;28;20847;-68
2022/11/10 03:55:06;;;;;;;10.30;6.20;;;10.80;99.90;;;;;;4978631;28;20634;-68
2022/11/10 03:57:33;;;;;;;9.87;5.70;;;10.80;99.90;;;;;;4978477;28;20450;-68
2022/11/10 03:59:59;;;;;;;6.57;5.80;;;10.70;99.90;;;;;;4978346;28;20455;-68
2022/11/10 04:02:26;;;;;;;10.70;6.30;;;10.70;99.90;;;;;;4978241;28;20462;-67
2022/11/10 04:10:23;;;;;;;10.70;7.20;;;10.70;99.90;;;;;;4978496;28;20454;-68
2022/11/10 04:15:43;;;;;;;8.20;7.30;;;10.70;99.90;;;;;;4978502;28;20450;-69
2022/11/10 04:21:00;;;;;;;13.63;8.30;;;10.70;99.90;;;;;;4972703;28;20522;-67
2022/11/10 04:23:29;;;;;;;8.73;7.83;;;10.70;99.90;;;;;;4978129;28;20493;-67
2022/11/10 04:28:43;;;;;;;8.70;7.37;;;10.70;99.90;;;;;;4978136;28;20521;-68
2022/11/10 04:31:10;;;;;;;10.47;8.00;;;10.60;99.90;;;;;;4977588;28;20459;-67
2022/11/10 04:33:38;;;;;;;10.20;7.47;;;10.50;99.90;;;;;;4977654;28;21005;-67
2022/11/10 04:36:07;;;;;;;11.33;7.50;;;10.50;99.90;;;;;;4977875;28;20455;-69
2022/11/10 04:38:34;;;;;;;13.73;7.70;;;10.50;99.90;;;;;;4977904;28;20454;-67
2022/11/10 04:41:01;;;;;;;8.47;6.70;;;10.40;99.90;;;;;;4978027;28;20463;-67
2022/11/10 04:43:28;;;;;;;9.80;6.90;;;10.40;99.90;;;;;;4977176;28;20474;-67
2022/11/10 04:45:55;;;;;;;9.50;6.50;;;10.40;99.90;;;;;;4977309;28;20478;-67
2022/11/10 04:48:23;;;;;;;8.50;6.83;;;10.40;99.90;;;;;;4983237;28;20474;-68
2022/11/10 04:50:49;;;;;;;10.83;7.60;;;10.30;99.90;;;;;;4985940;28;20465;-67
2022/11/10 04:53:18;;;;;;;14.93;7.60;;;10.30;99.90;;;;;;4985563;28;20606;-68
2022/11/10 04:55:45;;;;;;;11.03;7.80;;;10.20;99.90;;;;;;4982929;28;20509;-68
2022/11/10 04:58:12;;;;;;;8.23;7.00;;;10.20;99.90;;;;;;4977476;28;21002;-68
2022/11/10 05:00:40;;;;;;;9.40;7.33;;;10.10;99.90;;;;;;4977095;28;20475;-68
2022/11/10 05:03:08;;;;;;;8.43;7.63;;;10.10;99.90;;;;;;4977297;28;20814;-69
2022/11/10 05:05:35;;;;;;;9.30;6.80;;;10.10;99.90;;;;;;4977295;28;20462;-69
2022/11/10 05:08:03;;;;;;;10.67;7.80;;;10.10;99.90;;;;;;4977033;28;20957;-69
2022/11/10 05:10:31;;;;;;;11.97;7.07;;;10.00;99.90;;;;;;4977347;28;20458;-69
2022/11/10 05:12:58;;;;;;;8.33;6.90;;;9.90;99.90;;;;;;4976958;28;20978;-68
2022/11/10 05:15:25;;;;;;;9.70;7.33;;;9.90;99.90;;;;;;4977271;28;20462;-69
2022/11/10 05:17:53;;;;;;;13.30;7.30;;;9.90;99.90;;;;;;4977081;28;20509;-68
2022/11/10 05:20:21;;;;;;;9.80;6.40;;;9.80;99.90;;;;;;4976773;28;20916;-68
2022/11/10 05:25:31;;;;;;;10.00;6.60;;;9.80;99.90;;;;;;4976699;28;20439;-69
2022/11/10 05:27:58;;;;;;;11.93;7.10;;;9.80;99.90;;;;;;4976985;28;20482;-68
2022/11/10 05:30:24;;;;;;;9.13;5.90;;;9.80;99.90;;;;;;4976806;28;20868;-68
2022/11/10 05:32:51;;;;;;;11.17;6.00;;;9.80;99.90;;;;;;4977097;28;20477;-67
2022/11/10 05:35:18;;;;;;;6.87;5.93;;;9.80;99.90;;;;;;4977152;28;20454;-68
2022/11/10 05:37:44;;;;;;;9.30;6.70;;;9.70;99.90;;;;;;4977002;28;20447;-68
2022/11/10 05:40:11;;;;;;;8.17;6.50;;;9.70;99.90;;;;;;4976834;28;20532;-68
2022/11/10 05:42:44;;;;;;;12.83;6.70;;;9.70;99.90;;;;;;4977352;28;20813;-68
2022/11/10 05:45:10;;;;;;;11.73;6.73;;;9.70;99.90;;;;;;4976808;28;20439;-68
2022/11/10 05:47:37;;;;;;;9.73;6.33;;;9.70;99.90;;;;;;4976710;28;20535;-68
2022/11/10 05:50:05;;;;;;;9.40;7.40;;;9.70;99.90;;;;;;4976424;28;20896;-69
2022/11/10 05:52:31;;;;;;;7.47;6.43;;;9.70;99.90;;;;;;4976397;28;20513;-69
2022/11/10 05:54:58;;;;;;;7.77;6.37;;;9.70;99.90;;;;;;4976222;28;20825;-68
2022/11/10 05:57:25;;;;;;;9.47;6.30;;;9.70;99.90;;;;;;4976130;28;20494;-68
2022/11/10 05:59:53;;;;;;;11.47;7.10;;;9.70;99.90;;;;;;4976632;28;20513;-68
2022/11/10 06:02:19;;;;;;;8.27;6.90;;;9.70;99.90;;;;;;4976233;28;20470;-69
2022/11/10 06:04:46;;;;;;;7.47;6.73;;;9.70;99.90;;;;;;4976586;28;20554;-68
2022/11/10 06:07:13;;;;;;;8.37;7.13;;;9.70;99.90;;;;;;4976517;28;20467;-68
2022/11/10 06:09:40;;;;;;;13.20;7.67;;;9.70;99.90;;;;;;4976531;28;20533;-69
2022/11/10 06:12:07;;;;;;;11.13;7.47;;;9.60;99.90;;;;;;4976395;28;20450;-68
2022/11/10 06:14:34;;;;;;;16.10;7.50;;;9.60;99.90;;;;;;4976095;28;20478;-68
2022/11/10 06:17:02;;;;;;;10.73;7.20;;;9.60;99.90;;;;;;4976334;28;20831;-69
2022/11/10 06:19:29;;;;;;;9.20;6.60;;;9.60;99.90;;;;;;4976286;28;20833;-68
2022/11/10 06:21:56;;;;;;;10.80;7.80;;;9.60;99.90;;;;;;4975966;28;20502;-68
2022/11/10 06:24:23;;;;;;;8.07;7.27;;;9.60;99.90;;;;;;4975911;28;20478;-67
2022/11/10 06:26:50;;;;;;;10.43;7.90;;;9.60;99.90;;;;;;4975781;28;20514;-68
2022/11/10 06:29:16;;;;;;;8.93;7.03;;;9.60;99.90;;;;;;4975832;28;20454;-67
2022/11/10 06:31:43;;;;;;;8.53;7.53;;;9.60;99.90;;;;;;4975854;28;20513;-67
2022/11/10 06:34:11;;;;;;;7.40;6.70;;;9.70;99.90;;;;;;4975437;28;20990;-68
2022/11/10 06:36:39;;;;;;;11.10;7.20;;;9.70;99.90;;;;;;4975802;28;20512;-68
2022/11/10 06:39:06;;;;;;;8.90;7.17;;;9.70;99.90;;;;;;4975517;28;20558;-68
2022/11/10 06:41:33;;;;;;;12.30;7.40;;;9.80;99.90;;;;;;4975334;28;20943;-68
2022/11/10 06:44:00;;;;;;;8.60;7.43;;;9.80;99.90;;;;;;4975341;28;20529;-68
2022/11/10 06:46:27;;;;;;;13.10;6.77;;;9.80;99.90;;;;;;4975140;28;20501;-68
2022/11/10 06:48:53;;;;;;;11.00;6.53;;;9.90;99.90;;;;;;4975313;28;20459;-67
2022/11/10 06:51:21;;;;;;;8.40;6.20;;;10.00;99.90;;;;;;4975790;28;20454;-68
2022/11/10 06:53:48;;;;;;;7.50;6.40;;;10.10;99.90;;;;;;4975260;28;20549;-68
2022/11/10 06:56:15;;;;;;;7.20;6.27;;;10.10;99.90;;;;;;4975507;28;20543;-67
2022/11/10 06:58:41;;;;;;;6.50;5.70;;;10.20;99.90;;;;;;4975382;28;20455;-68
2022/11/10 07:01:08;;;;;;;6.70;5.80;;;10.30;99.90;;;;;;4975117;28;20494;-67
2022/11/10 07:03:36;;;;;;;8.70;5.90;;;10.50;99.90;;;;;;4974860;28;20893;-68
2022/11/10 07:06:03;;;;;;;10.27;6.50;;;10.60;99.90;;;;;;4975457;28;20459;-68
2022/11/10 07:08:32;;;;;;;8.53;5.80;;;10.70;99.90;;;;;;4974808;28;20523;-68
2022/11/10 07:10:58;;;;;;;10.47;5.27;;;10.80;99.90;;;;;;4975070;28;20461;-67
2022/11/10 07:13:25;;;;;;;16.93;5.70;;;11.00;99.90;;;;;;4975144;28;20478;-68
2022/11/10 07:15:52;;;;;;;4.97;4.50;;;11.10;99.90;;;;;;4975295;28;20525;-68
2022/11/10 07:18:19;;;;;;;8.00;4.70;;;11.30;99.90;;;;;;4974924;28;20821;-68
2022/11/10 07:20:46;;;;;;;8.07;5.70;;;11.50;99.90;;;;;;4975737;28;20451;-68
2022/11/10 07:23:12;;;;;;;5.73;4.43;;;11.80;99.90;;;;;;4975413;28;20478;-68
2022/11/10 07:25:40;;;;;;;7.37;4.53;;;12.00;99.90;;;;;;4975760;28;20459;-68
2022/11/10 07:28:09;;;;;;;7.93;4.07;;;12.60;99.90;;;;;;4974952;28;20482;-68
2022/11/10 07:30:36;;;;;;;3.23;2.93;;;13.40;99.90;;;;;;4975097;28;20560;-68
2022/11/10 07:33:06;;;;;;;3.97;3.00;;;14.50;99.90;;;;;;4974995;28;20561;-68
2022/11/10 07:35:34;;;;;;;3.10;2.30;;;15.80;99.90;;;;;;4974829;28;20435;-69
2022/11/10 07:38:03;;;;;;;7.80;2.90;;;17.00;99.90;;;;;;4975029;28;20514;-68
2022/11/10 07:40:30;;;;;;;3.77;3.10;;;18.30;99.90;;;;;;4975024;28;20506;-68
2022/11/10 07:42:58;;;;;;;4.27;3.07;;;19.30;99.90;;;;;;4975036;28;20478;-69
2022/11/10 07:45:26;;;;;;;4.80;3.20;;;20.00;99.90;;;;;;4975154;28;20531;-68
2022/11/10 07:47:57;;;;;;;7.13;3.43;;;20.60;99.90;;;;;;4975082;28;20482;-69
2022/11/10 07:50:24;;;;;;;3.60;3.13;;;20.80;99.90;;;;;;4975116;28;20494;-68
2022/11/10 07:52:50;;;;;;;3.63;2.60;;;20.80;99.90;;;;;;4974907;28;20478;-69
2022/11/10 07:55:17;;;;;;;4.90;3.43;;;21.10;99.90;;;;;;4974751;28;20466;-68
2022/11/10 07:57:44;;;;;;;3.73;3.40;;;20.90;99.90;;;;;;4975148;28;20477;-68
2022/11/10 08:00:14;;;;;;;5.93;3.20;;;20.80;99.90;;;;;;4975213;28;20462;-69
2022/11/10 08:02:41;;;;;;;6.13;3.23;;;21.40;99.90;;;;;;4974681;28;20840;-69
2022/11/10 08:05:08;;;;;;;6.00;3.40;;;21.70;99.90;;;;;;4974882;28;20462;-68
2022/11/10 08:07:35;;;;;;;4.07;3.30;;;21.80;99.90;;;;;;4974748;28;20486;-68
2022/11/10 08:10:01;;;;;;;4.53;3.50;;;21.90;99.90;;;;;;4974621;28;20938;-69
2022/11/10 08:12:28;;;;;;;5.20;3.53;;;22.00;99.90;;;;;;4974510;28;20517;-68
2022/11/10 08:14:55;;;;;;;5.73;3.23;;;21.90;99.90;;;;;;4974758;28;20458;-69
2022/11/10 08:17:23;;;;;;;4.13;3.10;;;22.10;99.90;;;;;;4975625;28;20455;-69
2022/11/10 08:19:49;;;;;;;4.70;2.97;;;22.40;99.90;;;;;;4977817;28;20495;-69
2022/11/10 08:22:16;;;;;;;3.30;2.70;;;23.10;99.90;;;;;;4978475;28;20862;-68
2022/11/10 08:24:42;;;;;;;4.40;3.30;;;24.10;99.20;;;;;;4978041;28;21049;-68
2022/11/10 08:27:09;;;;;;;5.77;3.20;;;24.90;95.70;;;;;;4978302;28;20486;-69
2022/11/10 08:29:36;;;;;;;6.33;3.03;;;25.40;94.70;;;;;;4978167;28;20462;-68
2022/11/10 08:32:02;;;;;;;5.77;3.27;;;26.20;92.60;;;;;;4978095;28;20946;-69
2022/11/10 08:34:30;;;;;;;3.60;2.70;;;26.60;91.50;;;;;;4978310;28;20533;-68
2022/11/10 08:36:57;;;;;;;3.20;2.80;;;27.10;87.70;;;;;;4978209;28;20454;-68
2022/11/10 08:39:24;;;;;;;3.03;2.50;;;27.20;85.90;;;;;;4977928;28;20950;-69
2022/11/10 08:41:50;;;;;;;3.93;2.70;;;27.60;83.10;;;;;;4978105;28;20872;-69
2022/11/10 08:44:17;;;;;;;5.13;2.93;;;27.70;79.90;;;;;;4978131;28;20475;-69
2022/11/10 08:46:44;;;;;;;6.93;3.30;;;27.50;77.00;;;;;;4978198;28;20513;-69
2022/11/10 08:49:10;;;;;;;3.77;2.60;;;27.20;78.90;;;;;;4978093;28;20539;-68
2022/11/10 08:51:38;;;;;;;5.40;3.00;;;27.10;77.00;;;;;;4978084;28;20505;-69
2022/11/10 08:54:05;;;;;;;5.97;3.43;;;26.80;76.70;;;;;;4978114;28;20474;-68
2022/11/10 08:56:31;;;;;;;6.00;3.47;;;26.50;76.50;;;;;;4977985;28;20862;-68
2022/11/10 08:58:58;;;;;;;5.17;3.60;;;26.50;80.20;;;;;;4978426;28;20458;-68
2022/11/10 09:01:25;;;;;;;4.53;3.40;;;26.30;78.10;;;;;;4977554;28;20501;-69
2022/11/10 09:03:51;;;;;;;6.00;3.60;;;26.10;78.40;;;;;;4977515;28;20637;-69
2022/11/10 09:06:18;;;;;;;7.87;4.63;;;26.20;77.80;;;;;;4977457;28;20470;-69
2022/11/10 09:08:46;;;;;;;3.23;2.97;;;26.10;76.70;;;;;;4977608;28;20486;-68
2022/11/10 09:11:13;;;;;;;5.37;2.90;;;26.30;78.50;;;;;;4977777;28;20455;-68
2022/11/10 09:13:39;;;;;;;2.87;2.57;;;26.80;77.10;;;;;;4977446;28;20475;-69
2022/11/10 09:16:06;;;;;;;2.17;1.97;;;27.40;74.50;;;;;;4977349;28;20467;-68
2022/11/10 09:18:33;;;;;;;3.20;2.20;;;28.30;71.10;;;;;;4977141;28;20510;-69
2022/11/10 09:21:01;;;;;;;3.43;2.43;;;28.20;69.50;;;;;;4977580;28;20466;-68
2022/11/10 09:23:28;;;;;;;2.23;2.03;;;28.20;71.20;;;;;;4977140;28;20532;-69
2022/11/10 09:25:57;;;;;;;2.70;1.43;;;28.50;69.00;;;;;;4977483;28;20455;-69
2022/11/10 09:28:24;;;;;;;5.47;3.10;;;28.90;65.30;;;;;;4977308;28;20478;-69
2022/11/10 09:30:52;;;;;;;2.63;1.90;;;28.90;61.80;;;;;;4976760;28;20458;-69
2022/11/10 09:33:18;;;;;;;2.03;1.70;;;29.20;61.20;;;;;;4976727;28;20994;-68
2022/11/10 09:35:45;;;;;;;5.03;2.10;;;28.90;60.10;;;;;;4977133;28;20463;-69
2022/11/10 09:38:12;;;;;;;5.93;2.17;;;28.50;62.70;;;;;;4977700;28;20846;-69
2022/11/10 09:40:51;;;;;;;3.67;2.13;;;28.40;63.80;;;;;;4977086;28;20875;-68
2022/11/10 09:43:25;;;;;;;3.17;1.97;;;28.80;62.60;;;;;;4976875;28;20478;-69
2022/11/10 09:45:55;;;;;;;2.80;2.00;;;28.90;61.30;;;;;;4977299;28;20934;-69
2022/11/10 09:48:25;;;;;;;3.70;2.03;;;29.10;60.40;;;;;;4983028;28;21056;-68
2022/11/10 09:50:56;;;;;;;4.30;2.20;;;29.20;60.10;;;;;;4982484;28;20796;-68
2022/11/10 09:53:27;;;;;;;1.80;1.40;;;29.20;58.60;;;;;;4978688;28;20479;-69
2022/11/10 09:55:58;;;;;;;4.23;2.10;;;29.60;58.50;;;;;;4977864;28;20965;-68
2022/11/10 09:58:33;;;;;;;2.67;1.87;;;29.60;57.90;;;;;;4977536;28;20506;-69
2022/11/10 10:01:11;;;;;;;3.83;1.93;;;29.40;57.70;;;;;;4977091;28;20477;-68
2022/11/10 10:03:45;;;;;;;3.10;1.53;;;28.90;58.10;;;;;;4976886;28;20478;-68
2022/11/10 10:06:14;;;;;;;3.57;1.83;;;29.10;59.10;;;;;;4977013;28;20454;-69
2022/11/10 10:08:50;;;;;;;3.87;1.43;;;28.90;59.70;;;;;;4976577;28;20986;-68
2022/11/10 10:11:28;;;;;;;1.37;1.27;;;29.00;57.20;;;;;;4976661;28;20501;-68
2022/11/10 10:14:07;;;;;;;5.23;1.93;;;28.90;56.40;;;;;;4976398;28;20478;-70
2022/11/10 10:16:39;;;;;;;1.77;1.10;;;28.90;56.20;;;;;;4976429;28;20447;-69
2022/11/10 10:19:15;;;;;;;4.97;1.53;;;28.60;56.60;;;;;;4976403;28;20494;-69
2022/11/10 10:21:50;;;;;;;4.43;1.90;;;28.30;57.10;;;;;;4976180;28;20911;-69
2022/11/10 10:24:21;;;;;;;1.30;1.17;;;27.90;57.00;;;;;;4976077;28;20529;-69
2022/11/10 10:26:51;;;;;;;1.63;1.17;;;27.40;58.10;;;;;;4976210;28;20443;-69
2022/11/10 10:29:22;;;;;;;4.13;1.20;;;27.00;58.90;;;;;;4975906;28;20569;-68
2022/11/10 10:31:51;;;;;;;4.67;1.90;;;26.80;58.90;;;;;;4975950;28;20675;-68
2022/11/10 10:34:19;;;;;;;4.10;2.17;;;26.80;60.80;;;;;;4976844;28;20538;-68
2022/11/10 10:36:46;;;;;;;5.23;1.63;;;26.70;59.80;;;;;;4976094;28;20458;-69
2022/11/10 10:39:16;;;;;;;2.20;1.30;;;26.20;60.00;;;;;;4975538;28;20462;-69
2022/11/10 10:41:45;;;;;;;4.63;1.50;;;25.50;62.90;;;;;;4976009;28;20509;-68
2022/11/10 10:44:14;;;;;;;3.70;1.40;;;24.70;62.90;;;;;;4975687;28;20504;-68
2022/11/10 10:46:47;;;;;;;3.40;1.60;;;23.90;64.90;;;;;;4976388;28;20525;-68
2022/11/10 10:49:18;;;;;;;3.23;1.20;;;23.40;68.00;;;;;;4976514;28;20467;-68
2022/11/10 10:51:46;;;;;;;1.77;1.30;;;22.30;68.70;;;;;;4977320;28;20855;-68
2022/11/10 10:54:27;;;;;;;3.83;1.63;;;21.80;72.00;;;;;;4977578;28;20866;-69
2022/11/10 10:57:02;;;;;;;1.90;1.30;;;21.20;75.40;;;;;;4977535;28;21013;-68
2022/11/10 10:59:29;;;;;;;4.17;1.33;;;20.70;76.70;;;;;;4976986;28;20439;-68
2022/11/10 11:01:57;;;;;;;2.70;1.17;;;20.30;78.60;;;;;;4975331;28;20467;-68
2022/11/10 11:04:31;;;;;;;1.70;1.10;;;20.10;81.60;;;;;;4975218;28;20479;-69
2022/11/10 11:07:00;;;;;;;2.10;1.40;;;19.80;84.40;;;;;;4975258;28;20450;-68
2022/11/10 11:09:29;;;;;;;6.30;1.70;;;19.50;87.90;;;;;;4975246;28;20529;-68
2022/11/10 11:12:02;;;;;;;4.37;2.10;;;19.40;89.80;;;;;;4975076;28;20458;-68
2022/11/10 11:14:30;;;;;;;5.70;1.40;;;19.20;91.30;;;;;;4975072;28;20482;-67
2022/11/10 11:17:01;;;;;;;4.90;1.20;;;19.10;89.80;;;;;;4975041;28;20454;-69
2022/11/10 11:19:31;;;;;;;2.90;1.60;;;19.00;90.50;;;;;;4975094;28;20470;-68
2022/11/10 11:22:44;;;;;;;4.83;1.30;;;18.80;89.40;;;;;;4976102;28;20465;-68
2022/11/10 11:25:19;;;;;;;2.30;1.20;;;18.40;89.60;;;;;;4975038;28;20943;-68
2022/11/10 11:27:56;;;;;;;4.37;2.07;;;18.30;92.00;;;;;;4975322;28;20492;-68
2022/11/10 11:30:27;;;;;;;5.50;1.50;;;18.10;90.80;;;;;;4974614;28;21002;-68
2022/11/10 11:33:25;;;;;;;1.90;1.20;;;17.90;92.00;;;;;;4974860;28;20486;-69
2022/11/10 11:35:58;;;;;;;8.00;1.80;;;18.00;92.00;;;;;;4975117;28;20488;-68
2022/11/10 11:38:31;;;;;;;4.63;1.50;;;17.90;91.60;;;;;;4975224;28;20431;-69
2022/11/10 11:41:10;;;;;;;4.10;1.53;;;17.90;93.80;;;;;;4975380;28;20518;-66
2022/11/10 11:44:06;;;;;;;3.37;1.50;;;17.90;93.30;;;;;;4974940;28;20529;-66
2022/11/10 11:46:43;;;;;;;5.77;1.90;;;18.00;92.60;;;;;;4975227;28;20447;-66
2022/11/10 11:49:34;;;;;;;3.73;1.40;;;18.10;91.50;;;;;;4974805;28;20469;-65
2022/11/10 11:52:08;;;;;;;3.27;1.40;;;18.00;92.30;;;;;;4975354;28;20458;-65
2022/11/10 11:54:50;;;;;;;3.17;1.40;;;17.70;93.40;;;;;;4978076;28;20545;-66
2022/11/10 11:57:29;;;;;;;2.30;1.50;;;17.60;93.00;;;;;;4978768;28;20443;-66
2022/11/10 12:00:05;;;;;;;5.43;1.23;;;17.50;94.90;;;;;;4978908;28;20439;-66
2022/11/10 12:03:03;;;;;;;2.80;1.30;;;17.40;97.80;;;;;;4978410;28;20513;-66
2022/11/10 12:05:42;;;;;;;5.17;1.10;;;17.40;99.90;;;;;;4978706;28;20454;-66
2022/11/10 12:08:22;;;;;;;1.63;1.20;;;17.50;93.50;;;;;;4978463;28;20488;-66
2022/11/10 12:11:00;;;;;;;3.73;1.53;;;17.50;93.50;;;;;;4978537;28;20438;-66
2022/11/10 12:13:47;;;;;;;1.87;1.03;;;17.50;95.70;;;;;;4978479;28;20474;-66
2022/11/10 12:16:20;;;;;;;2.20;1.10;;;17.60;94.70;;;;;;4978697;28;20842;-66
2022/11/10 12:18:52;;;;;;;1.63;0.90;;;17.60;97.20;;;;;;4978672;28;20469;-65
2022/11/10 12:21:25;;;;;;;5.30;1.80;;;17.70;96.30;;;;;;4978818;28;20443;-66
2022/11/10 12:24:12;;;;;;;1.90;0.97;;;17.70;92.90;;;;;;4978445;28;20502;-66
2022/11/10 12:26:47;;;;;;;4.70;1.20;;;17.70;95.30;;;;;;4979129;28;20446;-66
2022/11/10 12:29:23;;;;;;;2.87;2.10;;;17.80;94.20;;;;;;4978077;28;20966;-66
2022/11/10 12:31:55;;;;;;;2.40;1.30;;;17.90;96.00;;;;;;4978095;28;20445;-65
2022/11/10 12:34:32;;;;;;;3.03;1.37;;;18.00;94.10;;;;;;4978295;28;20474;-65
2022/11/10 12:37:05;;;;;;;3.33;1.10;;;18.10;94.50;;;;;;4978515;28;20442;-66
2022/11/10 12:39:41;;;;;;;2.97;1.13;;;18.10;94.10;;;;;;4978341;28;20441;-66
2022/11/10 12:42:14;;;;;;;2.73;1.20;;;18.10;93.40;;;;;;4978187;28;20447;-66
2022/11/10 12:44:55;;;;;;;7.67;1.53;;;18.00;93.80;;;;;;4978495;28;20478;-66
2022/11/10 12:47:25;;;;;;;5.90;1.10;;;18.00;92.30;;;;;;4978166;28;20919;-66
2022/11/10 12:50:03;;;;;;;2.67;0.93;;;18.00;93.00;;;;;;4982658;28;20463;-66
2022/11/10 12:52:35;;;;;;;5.07;1.60;;;17.90;92.10;;;;;;4987624;28;20442;-66
2022/11/10 12:55:02;;;;;;;2.40;1.20;;;18.00;93.90;;;;;;4981724;28;20439;-66
2022/11/10 12:57:31;;;;;;;2.80;1.17;;;18.00;93.00;;;;;;4977489;28;21012;-66
2022/11/10 13:00:01;;;;;;;1.90;1.10;;;17.90;94.80;;;;;;4977901;28;20930;-66
2022/11/10 13:02:32;;;;;;;2.80;1.30;;;18.00;94.00;;;;;;4977729;28;20462;-66
2022/11/10 13:05:26;;;;;;;3.33;1.17;;;18.00;93.30;;;;;;4978214;28;20439;-65
2022/11/10 13:08:19;;;;;;;3.50;1.20;;;18.00;92.30;;;;;;4979007;28;20439;-66
2022/11/10 13:10:55;;;;;;;5.87;1.30;;;18.00;92.70;;;;;;4978279;28;20530;-66
2022/11/10 13:13:23;;;;;;;2.63;1.83;;;18.00;94.80;;;;;;4977622;28;20475;-66
2022/11/10 13:15:53;;;;;;;2.40;1.17;;;18.00;92.70;;;;;;4977132;28;20794;-66